Secretariat — WDG2166 — position and weather

sailwx.info

Track history (hours):
 
Tides and Currents Weather Stations Pressure Air Temp Water Temp Dewpoint Dewpoint Depression Visibility Wind Speed Wind Dir Waves Ship Positions

Secretariat

Owner: Turn Services, LLC, New Orleans, LA. More information available from US FCC via Universal Licensing System and Coast Guard Vessel Documentation Center.

Last reported at 2017-Nov-23 04:56 UTC. Time now 2017-Nov-24 15:07 UTC.
Position N 29°50' W 091°59'.

Length 22 m; draft 2.8 m.

Type: Towing. MMSI: 367512840.

Date/timePositionNaut miles runAvg speedWind from/ knotsBaromVisibWave heightAir tempDewpointWater temp
2017-Nov-23 04:56N 29°50' W 091°59'2 4.3
2017-Nov-23 04:31N 29°49' W 092°01'2 4.4
2017-Nov-23 04:01N 29°49' W 092°03'2 4.3
2017-Nov-23 03:30N 29°48' W 092°06'2 4.5
2017-Nov-23 03:01N 29°47' W 092°08'2 4.3
2017-Nov-23 02:30N 29°47' W 092°10'1 1.1
2017-Nov-23 02:01N 29°47' W 092°11'0 0.0
2017-Nov-23 01:30N 29°47' W 092°11'0 0.0
2017-Nov-23 01:00N 29°47' W 092°11'0 0.0
2017-Nov-23 00:31N 29°47' W 092°11'0 0.0
2017-Nov-23 00:01N 29°47' W 092°11'0 0.0
2017-Nov-22 23:31N 29°47' W 092°11'1 1.4
2017-Nov-22 23:00N 29°47' W 092°12'2 3.9
2017-Nov-22 22:31N 29°48' W 092°14'2 3.7
2017-Nov-22 22:01N 29°48' W 092°16'2 3.5
2017-Nov-22 21:27N 29°50' W 092°18'2 3.4
2017-Nov-22 21:00N 29°50' W 092°19'2 3.6
2017-Nov-22 20:30N 29°51' W 092°21'  
2017-Nov-18 13:56N 30°04' W 093°41'2 5.3
2017-Nov-18 13:30N 30°04' W 093°38'3 5.9
2017-Nov-18 13:00N 30°04' W 093°35'3 5.9
2017-Nov-18 12:30N 30°04' W 093°31'3 6.0
2017-Nov-18 12:01N 30°04' W 093°28'3 6.0
2017-Nov-18 11:30N 30°04' W 093°24'2 4.2
2017-Nov-18 11:00N 30°04' W 093°22'0 0.4
2017-Nov-18 10:31N 30°04' W 093°22'0 0.4
2017-Nov-18 10:00N 30°04' W 093°22'0 0.0
2017-Nov-18 09:31N 30°04' W 093°22'0 0.0
2017-Nov-18 09:01N 30°04' W 093°22'0 0.0
2017-Nov-18 08:30N 30°04' W 093°22'0 0.0
2017-Nov-18 08:01N 30°04' W 093°22'0 0.0
2017-Nov-18 07:31N 30°04' W 093°22'0 0.0
2017-Nov-18 07:01N 30°04' W 093°22'0 0.0
2017-Nov-18 06:30N 30°04' W 093°22'1 1.9
2017-Nov-18 06:00N 30°04' W 093°21'2 4.1
2017-Nov-18 05:31N 30°06' W 093°19'1 2.8
2017-Nov-18 05:01N 30°05' W 093°18'1 1.2
2017-Nov-18 04:31N 30°05' W 093°17'1 2.3
2017-Nov-18 04:00N 30°04' W 093°16'0 0.3
2017-Nov-18 03:31N 30°04' W 093°16'0 0.0
2017-Nov-18 03:00N 30°04' W 093°16'0 0.0
2017-Nov-18 02:31N 30°04' W 093°16'0 0.0
2017-Nov-18 02:01N 30°04' W 093°16'0 0.0
2017-Nov-18 01:30N 30°04' W 093°16'0 0.0
2017-Nov-18 01:01N 30°04' W 093°16'0 0.2
2017-Nov-18 00:31N 30°04' W 093°16'0 0.0
2017-Nov-18 00:00N 30°04' W 093°16'0 0.0
2017-Nov-17 23:30N 30°04' W 093°16'0 0.8
2017-Nov-17 23:01N 30°04' W 093°16'2 3.2
2017-Nov-17 22:31N 30°02' W 093°15'2 3.5
2017-Nov-17 22:01N 30°01' W 093°14'2 3.5
2017-Nov-17 21:30N 29°60' W 093°13'2 3.9
2017-Nov-17 21:01N 29°58' W 093°11'2 3.9
2017-Nov-17 20:31N 29°57' W 093°10'2 3.5
2017-Nov-17 20:00N 29°56' W 093°08'2 3.9
2017-Nov-17 19:30N 29°56' W 093°06'33 3.5
2017-Nov-17 10:03N 29°54' W 092°27'0 3.6
2017-Nov-17 10:00N 29°54' W 092°27'2 3.7
2017-Nov-17 09:23N 29°53' W 092°25'2 3.4
2017-Nov-17 08:50N 29°52' W 092°23'2 3.5
2017-Nov-17 08:22N 29°51' W 092°22'1 3.2
2017-Nov-17 08:00N 29°51' W 092°20'0 0.1
2017-Nov-17 07:30N 29°51' W 092°20'1 1.1
2017-Nov-17 07:00N 29°50' W 092°20'2 3.1
2017-Nov-17 06:30N 29°50' W 092°18'2 3.1
2017-Nov-17 06:00N 29°49' W 092°17'2 3.3
2017-Nov-17 05:31N 29°48' W 092°15'2 3.3
2017-Nov-17 05:01N 29°48' W 092°13'1 1.9
2017-Nov-17 04:31N 29°47' W 092°12'1 1.6
2017-Nov-17 04:00N 29°47' W 092°11'1 1.2
2017-Nov-17 03:31N 29°47' W 092°11'0 0.3
2017-Nov-17 03:01N 29°47' W 092°11'1 1.9
2017-Nov-17 02:31N 29°47' W 092°10'2 4.1
2017-Nov-17 02:00N 29°47' W 092°07'2 3.7
2017-Nov-17 01:30N 29°48' W 092°05'2 3.1
2017-Nov-17 01:00N 29°49' W 092°04'2 3.6
2017-Nov-17 00:31N 29°49' W 092°02'2 4.3
2017-Nov-17 00:01N 29°50' W 091°59'59 3.8
2017-Nov-16 08:28N 29°33' W 090°54'2 4.1
2017-Nov-16 07:59N 29°32' W 090°52'2 4.4
2017-Nov-16 07:30N 29°32' W 090°49'2 4.5
2017-Nov-16 07:00N 29°32' W 090°47'2 3.8
2017-Nov-16 06:31N 29°33' W 090°45'2 3.7
2017-Nov-16 06:00N 29°34' W 090°43'2 3.3
2017-Nov-16 05:31N 29°36' W 090°43'1 2.6
2017-Nov-16 05:01N 29°37' W 090°42'1 1.6
2017-Nov-16 04:31N 29°36' W 090°41'0 0.9
2017-Nov-16 04:01N 29°36' W 090°40'2 3.5
2017-Nov-16 03:30N 29°35' W 090°39'2 3.6
2017-Nov-16 03:00N 29°35' W 090°37'2 3.4
2017-Nov-16 02:30N 29°34' W 090°35'2 3.6
2017-Nov-16 02:00N 29°34' W 090°33'2 3.8
2017-Nov-16 01:30N 29°34' W 090°31'2 3.8
2017-Nov-16 01:00N 29°34' W 090°29'  
Track history (hours):
 
Tides and Currents Weather Stations Pressure Air Temp Water Temp Dewpoint Dewpoint Depression Visibility Wind Speed Wind Dir Waves Ship Positions

Secretariat

Owner: Turn Services, LLC, New Orleans, LA. More information available from US FCC via Universal Licensing System and Coast Guard Vessel Documentation Center.

Last reported at 2017-Nov-23 04:56 UTC. Time now 2017-Nov-24 15:07 UTC.
Position N 29°50' W 091°59'.

Length 22 m; draft 2.8 m.

Type: Towing. MMSI: 367512840.

Date/timePositionNaut miles runAvg speedWind from/ knotsBaromVisibWave heightAir tempDewpointWater temp
2017-Nov-23 04:56N 29°50' W 091°59'2 4.3
2017-Nov-23 04:31N 29°49' W 092°01'2 4.4
2017-Nov-23 04:01N 29°49' W 092°03'2 4.3
2017-Nov-23 03:30N 29°48' W 092°06'2 4.5
2017-Nov-23 03:01N 29°47' W 092°08'2 4.3
2017-Nov-23 02:30N 29°47' W 092°10'1 1.1
2017-Nov-23 02:01N 29°47' W 092°11'0 0.0
2017-Nov-23 01:30N 29°47' W 092°11'0 0.0
2017-Nov-23 01:00N 29°47' W 092°11'0 0.0
2017-Nov-23 00:31N 29°47' W 092°11'0 0.0
2017-Nov-23 00:01N 29°47' W 092°11'0 0.0
2017-Nov-22 23:31N 29°47' W 092°11'1 1.4
2017-Nov-22 23:00N 29°47' W 092°12'2 3.9
2017-Nov-22 22:31N 29°48' W 092°14'2 3.7
2017-Nov-22 22:01N 29°48' W 092°16'2 3.5
2017-Nov-22 21:27N 29°50' W 092°18'2 3.4
2017-Nov-22 21:00N 29°50' W 092°19'2 3.6
2017-Nov-22 20:30N 29°51' W 092°21'  
2017-Nov-18 13:56N 30°04' W 093°41'2 5.3
2017-Nov-18 13:30N 30°04' W 093°38'3 5.9
2017-Nov-18 13:00N 30°04' W 093°35'3 5.9
2017-Nov-18 12:30N 30°04' W 093°31'3 6.0
2017-Nov-18 12:01N 30°04' W 093°28'3 6.0
2017-Nov-18 11:30N 30°04' W 093°24'2 4.2
2017-Nov-18 11:00N 30°04' W 093°22'0 0.4
2017-Nov-18 10:31N 30°04' W 093°22'0 0.4
2017-Nov-18 10:00N 30°04' W 093°22'0 0.0
2017-Nov-18 09:31N 30°04' W 093°22'0 0.0
2017-Nov-18 09:01N 30°04' W 093°22'0 0.0
2017-Nov-18 08:30N 30°04' W 093°22'0 0.0
2017-Nov-18 08:01N 30°04' W 093°22'0 0.0
2017-Nov-18 07:31N 30°04' W 093°22'0 0.0
2017-Nov-18 07:01N 30°04' W 093°22'0 0.0
2017-Nov-18 06:30N 30°04' W 093°22'1 1.9
2017-Nov-18 06:00N 30°04' W 093°21'2 4.1
2017-Nov-18 05:31N 30°06' W 093°19'1 2.8
2017-Nov-18 05:01N 30°05' W 093°18'1 1.2
2017-Nov-18 04:31N 30°05' W 093°17'1 2.3
2017-Nov-18 04:00N 30°04' W 093°16'0 0.3
2017-Nov-18 03:31N 30°04' W 093°16'0 0.0
2017-Nov-18 03:00N 30°04' W 093°16'0 0.0
2017-Nov-18 02:31N 30°04' W 093°16'0 0.0
2017-Nov-18 02:01N 30°04' W 093°16'0 0.0
2017-Nov-18 01:30N 30°04' W 093°16'0 0.0
2017-Nov-18 01:01N 30°04' W 093°16'0 0.2
2017-Nov-18 00:31N 30°04' W 093°16'0 0.0
2017-Nov-18 00:00N 30°04' W 093°16'0 0.0
2017-Nov-17 23:30N 30°04' W 093°16'0 0.8
2017-Nov-17 23:01N 30°04' W 093°16'2 3.2
2017-Nov-17 22:31N 30°02' W 093°15'2 3.5
2017-Nov-17 22:01N 30°01' W 093°14'2 3.5
2017-Nov-17 21:30N 29°60' W 093°13'2 3.9
2017-Nov-17 21:01N 29°58' W 093°11'2 3.9
2017-Nov-17 20:31N 29°57' W 093°10'2 3.5
2017-Nov-17 20:00N 29°56' W 093°08'2 3.9
2017-Nov-17 19:30N 29°56' W 093°06'33 3.5
2017-Nov-17 10:03N 29°54' W 092°27'0 3.6
2017-Nov-17 10:00N 29°54' W 092°27'2 3.7
2017-Nov-17 09:23N 29°53' W 092°25'2 3.4
2017-Nov-17 08:50N 29°52' W 092°23'2 3.5
2017-Nov-17 08:22N 29°51' W 092°22'1 3.2
2017-Nov-17 08:00N 29°51' W 092°20'0 0.1
2017-Nov-17 07:30N 29°51' W 092°20'1 1.1
2017-Nov-17 07:00N 29°50' W 092°20'2 3.1
2017-Nov-17 06:30N 29°50' W 092°18'2 3.1
2017-Nov-17 06:00N 29°49' W 092°17'2 3.3
2017-Nov-17 05:31N 29°48' W 092°15'2 3.3
2017-Nov-17 05:01N 29°48' W 092°13'1 1.9
2017-Nov-17 04:31N 29°47' W 092°12'1 1.6
2017-Nov-17 04:00N 29°47' W 092°11'1 1.2
2017-Nov-17 03:31N 29°47' W 092°11'0 0.3
2017-Nov-17 03:01N 29°47' W 092°11'1 1.9
2017-Nov-17 02:31N 29°47' W 092°10'2 4.1
2017-Nov-17 02:00N 29°47' W 092°07'2 3.7
2017-Nov-17 01:30N 29°48' W 092°05'2 3.1
2017-Nov-17 01:00N 29°49' W 092°04'2 3.6
2017-Nov-17 00:31N 29°49' W 092°02'2 4.3
2017-Nov-17 00:01N 29°50' W 091°59'59 3.8
2017-Nov-16 08:28N 29°33' W 090°54'2 4.1
2017-Nov-16 07:59N 29°32' W 090°52'2 4.4
2017-Nov-16 07:30N 29°32' W 090°49'2 4.5
2017-Nov-16 07:00N 29°32' W 090°47'2 3.8
2017-Nov-16 06:31N 29°33' W 090°45'2 3.7
2017-Nov-16 06:00N 29°34' W 090°43'2 3.3
2017-Nov-16 05:31N 29°36' W 090°43'1 2.6
2017-Nov-16 05:01N 29°37' W 090°42'1 1.6
2017-Nov-16 04:31N 29°36' W 090°41'0 0.9
2017-Nov-16 04:01N 29°36' W 090°40'2 3.5
2017-Nov-16 03:30N 29°35' W 090°39'2 3.6
2017-Nov-16 03:00N 29°35' W 090°37'2 3.4
2017-Nov-16 02:30N 29°34' W 090°35'2 3.6
2017-Nov-16 02:00N 29°34' W 090°33'2 3.8
2017-Nov-16 01:30N 29°34' W 090°31'2 3.8
2017-Nov-16 01:00N 29°34' W 090°29'  

Dump ship's entire track history